Time;durP1;ratioP1;P1;durP2;ratioP2;P2;SDS_P1;SDS_P2;PMS_P1;PMS_P2;Temp;Humidity;BMP_temperature;BMP_pressure;BME280_temperature;BME280_humidity;BME280_pressure;Samples;Min_cycle;Max_cycle;Signal;HPM_P1;HPM_P2
2022/08/09 00:02:44;;;;;;;4.50;2.47;;;;;;;17.24;63.38;101464.39;3304327;83;21085;-73
2022/08/09 00:07:37;;;;;;;6.72;2.95;;;;;;;17.23;63.80;101465.70;3357234;81;21014;-74
2022/08/09 00:12:29;;;;;;;4.17;2.58;;;;;;;17.21;64.43;101471.39;3325374;81;21002;-73
2022/08/09 00:17:23;;;;;;;5.60;2.45;;;;;;;17.17;64.63;101482.75;3358091;82;22014;-73
2022/08/09 00:22:16;;;;;;;4.22;2.70;;;;;;;17.11;64.91;101483.63;3350868;82;20974;-74
2022/08/09 00:27:08;;;;;;;5.50;2.90;;;;;;;17.05;65.11;101481.86;3367466;83;21073;-73
2022/08/09 00:32:00;;;;;;;2.62;2.17;;;;;;;17.02;65.20;101485.78;3368125;82;21909;-73
2022/08/09 00:36:53;;;;;;;5.15;2.00;;;;;;;17.01;65.49;101485.78;3334901;82;20959;-73
2022/08/09 00:41:45;;;;;;;3.12;2.37;;;;;;;16.98;65.54;101485.34;3363227;83;21449;-73
2022/08/09 00:46:37;;;;;;;2.87;2.40;;;;;;;16.98;65.67;101487.11;3327932;83;22254;-73
2022/08/09 00:51:30;;;;;;;4.65;2.58;;;;;;;16.98;65.52;101485.34;3362783;83;21124;-73
2022/08/09 00:56:22;;;;;;;2.75;2.40;;;;;;;16.98;65.81;101486.66;3363034;83;20980;-73
2022/08/09 01:01:25;;;;;;;3.25;2.65;;;;;;;16.96;65.83;101487.97;3365158;83;21654;-73
2022/08/09 01:06:29;;;;;;;4.17;2.80;;;;;;;16.94;65.90;101491.48;3366015;81;23108;-74
2022/08/09 01:11:33;;;;;;;6.60;2.50;;;;;;;16.86;65.92;101495.81;3360425;82;21528;-73
2022/08/09 01:16:36;;;;;;;3.20;2.72;;;;;;;16.82;66.01;101494.02;3348774;82;21001;-73
2022/08/09 01:21:45;;;;;;;4.47;2.80;;;;;;;16.75;66.10;101493.98;3389639;83;21171;-73
2022/08/09 01:27:06;;;;;;;4.08;2.35;;;;;;;16.69;66.24;101493.97;3331989;82;21033;-73
2022/08/09 01:32:03;;;;;;;5.95;2.90;;;;;;;16.63;66.22;101493.93;3323116;83;40212;-73
2022/08/09 01:36:59;;;;;;;3.98;2.30;;;;;;;16.86;65.97;101487.94;3354919;81;21563;-73
2022/08/09 01:41:53;;;;;;;4.28;3.05;;;;;;;16.72;66.07;101490.05;3344216;82;20977;-73
2022/08/09 01:46:46;;;;;;;5.90;2.72;;;;;;;16.61;66.30;101494.80;3364045;83;21028;-73
2022/08/09 01:51:45;;;;;;;3.00;2.30;;;;;;;16.52;66.43;101498.27;3336326;83;20959;-73
2022/08/09 01:56:42;;;;;;;3.92;2.80;;;;;;;16.47;66.42;101498.67;3329335;82;21861;-73
2022/08/09 02:01:36;;;;;;;5.83;2.83;;;;;;;16.35;66.65;101496.44;3326237;82;21053;-73
2022/08/09 02:11:41;;;;;;;4.17;2.62;;;;;;;16.21;67.05;101504.66;3323780;82;20982;-73
2022/08/09 02:16:37;;;;;;;3.77;2.67;;;;;;;16.14;67.18;101505.05;3378894;82;20997;-73
2022/08/09 02:21:37;;;;;;;4.03;2.63;;;;;;;16.09;67.32;101498.02;3336261;83;21063;-73
2022/08/09 02:26:33;;;;;;;7.15;2.80;;;;;;;16.04;67.32;101499.73;3365942;83;21137;-73
2022/08/09 02:31:33;;;;;;;2.37;2.17;;;;;;;15.97;67.57;101499.70;3330735;83;20974;-74
2022/08/09 02:36:41;;;;;;;5.15;2.60;;;;;;;15.88;67.58;101489.56;3378849;82;21006;-73
2022/08/09 02:41:50;;;;;;;6.25;2.77;;;;;;;15.84;67.87;101492.59;3369793;83;21018;-73
2022/08/09 02:46:44;;;;;;;3.58;2.92;;;;;;;15.79;68.05;101502.16;3336220;83;21102;-73
2022/08/09 02:51:40;;;;;;;4.50;3.17;;;;;;;15.77;68.23;101506.52;3341441;82;21437;-73
2022/08/09 02:56:35;;;;;;;5.67;3.20;;;;;;;15.71;68.26;101503.83;3369068;82;21056;-73
2022/08/09 03:01:31;;;;;;;3.85;3.33;;;;;;;15.68;68.47;101509.91;3316420;82;21486;-73
2022/08/09 03:06:25;;;;;;;4.30;2.87;;;;;;;15.66;68.61;101507.70;3353214;82;21025;-73
2022/08/09 03:11:21;;;;;;;3.50;2.72;;;;;;;15.62;68.84;101510.73;3319557;83;21730;-73
2022/08/09 03:16:17;;;;;;;4.05;2.70;;;;;;;15.60;69.09;101515.09;3373405;83;21559;-73
2022/08/09 03:21:11;;;;;;;3.20;2.50;;;;;;;15.58;69.17;101515.95;3350652;82;20986;-73
2022/08/09 03:26:04;;;;;;;3.87;2.90;;;;;;;15.57;69.39;101515.05;3320610;82;21618;-73
2022/08/09 03:30:58;;;;;;;3.70;3.22;;;;;;;15.58;69.43;101518.58;3358979;83;21036;-73
2022/08/09 03:35:53;;;;;;;6.90;4.17;;;;;;;15.59;69.48;101515.94;3322247;83;21106;-74
2022/08/09 03:40:45;;;;;;;4.97;2.55;;;;;;;15.60;69.46;101517.71;3376070;83;20935;-73
2022/08/09 03:45:38;;;;;;;3.72;3.10;;;;;;;15.61;69.67;101513.34;3350609;82;21550;-73
2022/08/09 03:50:32;;;;;;;3.87;3.08;;;;;;;15.61;69.75;101524.73;3386613;82;21017;-73
2022/08/09 03:55:26;;;;;;;7.33;3.20;;;;;;;15.63;69.91;101525.61;3345933;82;20998;-73
2022/08/09 04:00:18;;;;;;;4.25;2.98;;;;;;;15.65;70.29;101528.25;3343045;83;21085;-73
2022/08/09 04:05:13;;;;;;;3.90;3.17;;;;;;;15.72;70.11;101535.72;3366920;83;21061;-73
2022/08/09 04:10:07;;;;;;;4.97;2.85;;;;;;;15.81;70.41;101534.55;3313557;83;21030;-73
2022/08/09 04:15:03;;;;;;;4.33;3.10;;;;;;;15.92;70.68;101536.81;3357631;82;21671;-73
2022/08/09 04:19:56;;;;;;;4.73;2.83;;;;;;;16.04;70.69;101539.07;3345707;83;21439;-73
2022/08/09 04:24:49;;;;;;;3.37;3.08;;;;;;;16.13;70.62;101536.52;3302634;83;22735;-73
2022/08/09 04:29:41;;;;;;;5.78;3.20;;;;;;;16.27;70.91;101537.48;3328098;82;21077;-73
2022/08/09 04:34:33;;;;;;;6.55;2.85;;;;;;;16.37;70.79;101535.37;3360962;82;21484;-73
2022/08/09 04:39:26;;;;;;;4.87;2.65;;;;;;;16.49;70.53;101537.61;3319446;83;21048;-73
2022/08/09 04:44:18;;;;;;;3.47;2.92;;;;;;;16.62;69.82;101536.83;3338949;83;21477;-73
2022/08/09 04:49:10;;;;;;;6.40;2.92;;;;;;;16.76;69.59;101535.14;3381727;83;21146;-73
2022/08/09 04:54:03;;;;;;;4.83;2.85;;;;;;;16.91;69.21;101537.42;3324631;82;21132;-74
2022/08/09 04:58:56;;;;;;;4.92;3.05;;;;;;;17.00;69.09;101540.52;3321845;83;21547;-73
2022/08/09 05:03:50;;;;;;;4.80;2.60;;;;;;;17.10;68.83;101545.81;3349069;82;21491;-74
2022/08/09 05:08:52;;;;;;;2.90;2.70;;;;;;;17.20;68.70;101544.52;3326264;82;21026;-73
2022/08/09 05:13:47;;;;;;;2.83;2.62;;;;;;;17.31;68.47;101546.31;3334587;83;21155;-73
2022/08/09 05:19:01;;;;;;;4.25;2.92;;;;;;;17.37;68.20;101549.39;3322110;82;21593;-74
2022/08/09 05:23:54;;;;;;;8.25;2.90;;;;;;;17.46;68.09;101554.66;3299153;84;21010;-73
2022/08/09 05:29:15;;;;;;;;;;;;;;;;;;;;;
2022/08/09 05:34:03;;;;;;;6.28;2.87;;;;;;;17.71;68.04;101571.80;3340646;82;21088;-73
2022/08/09 05:38:55;;;;;;;5.03;2.95;;;;;;;17.82;67.75;101566.09;3286660;83;21049;-73
2022/08/09 05:43:57;;;;;;;6.42;3.05;;;;;;;17.98;67.57;101563.06;3366426;83;21593;-73
2022/08/09 05:48:49;;;;;;;8.23;3.15;;;;;;;18.17;67.02;101565.26;3369053;82;21619;-73
2022/08/09 05:53:43;;;;;;;6.35;3.33;;;;;;;18.41;66.83;101560.83;3328089;83;21658;-73
2022/08/09 05:58:48;;;;;;;7.55;3.45;;;;;;;18.62;66.49;101562.54;3358927;83;21693;-74
2022/08/09 06:03:58;;;;;;;3.85;2.75;;;;;;;18.79;66.21;101565.97;3322180;82;21463;-74
2022/08/09 06:08:58;;;;;;;4.17;2.90;;;;;;;19.02;65.32;101563.28;3362920;82;21068;-74
2022/08/09 06:13:51;;;;;;;4.65;2.67;;;;;;;19.28;64.72;101571.52;3336902;83;20930;-73
2022/08/09 06:18:43;;;;;;;5.17;2.52;;;;;;;19.57;64.44;101573.09;3299756;83;21557;-73
2022/08/09 06:23:35;;;;;;;3.87;2.62;;;;;;;19.65;63.97;101575.67;3382246;83;21034;-73
2022/08/09 06:28:39;;;;;;;5.22;2.85;;;;;;;19.80;64.01;101571.20;3360846;83;21399;-74
2022/08/09 06:34:08;;;;;;;9.83;3.03;;;;;;;19.94;63.74;101568.87;3388599;83;21590;-73
2022/08/09 06:39:13;;;;;;;6.70;3.15;;;;;;;19.98;63.17;101565.34;3264923;85;21928;-73
2022/08/09 06:44:18;;;;;;;2.87;2.52;;;;;;;20.06;62.97;101573.19;3238227;84;21010;-74
2022/08/09 06:49:12;;;;;;;7.28;3.25;;;;;;;20.22;62.63;101560.72;3138182;89;21083;-73
2022/08/09 06:54:04;;;;;;;3.72;2.50;;;;;;;20.45;62.32;101578.98;3097692;89;21212;-73
2022/08/09 07:52:15;;;;;;;2.87;1.62;;;;;;;24.64;53.30;101581.77;3367685;84;22127;-75
2022/08/09 07:58:38;;;;;;;;;;;;;;;;;;;;;
2022/08/09 09:02:32;;;;;;;;;;;;;;;24.57;46.98;101597.02;2985290;92;21855;-73
2022/08/09 09:08:02;;;;;;;;;;;;;;;;;;;;;
2022/08/09 09:13:41;;;;;;;;;;;;;;;;;;;;;
2022/08/09 09:18:57;;;;;;;;;;;;;;;25.74;45.33;101590.00;3004594;93;21045;-74
2022/08/09 09:24:21;;;;;;;2.50;1.98;;;;;;;26.06;45.33;101586.33;2948132;92;20747;-74
2022/08/09 09:29:34;;;;;;;;;;;;;;;;;;;;;
2022/08/09 09:40:12;;;;;;;1.77;1.67;;;;;;;26.40;42.71;101582.48;2754542;101;21015;-73
2022/08/09 09:56:54;;;;;;;4.50;2.27;;;;;;;27.17;41.78;101592.53;2976460;93;21140;-74
2022/08/09 10:02:06;;;;;;;2.15;1.72;;;;;;;27.64;40.77;101587.59;2959614;93;21037;-74
2022/08/09 10:07:08;;;;;;;2.55;1.80;;;;;;;27.54;41.13;101588.89;2963306;93;21106;-74
2022/08/09 10:12:31;;;;;;;3.37;1.60;;;;;;;27.58;40.54;101593.20;3127356;87;21760;-73
2022/08/09 10:29:35;;;;;;;2.47;1.90;;;;;;;27.03;40.54;101599.34;3326618;81;21150;-74
2022/08/09 10:34:44;;;;;;;4.17;2.75;;;;;;;26.93;41.28;101595.66;3252308;85;21103;-74
2022/08/09 10:45:29;;;;;;;3.12;2.30;;;;;;;27.17;40.50;101603.20;3258729;85;21011;-74
2022/08/09 11:03:01;;;;;;;3.37;2.17;;;;;;;27.49;40.39;101585.53;3219313;86;21085;-74
2022/08/09 11:09:07;;;;;;;2.72;2.00;;;;;;;27.93;38.83;101580.20;3196388;86;21103;-74
2022/08/09 11:14:38;;;;;;;2.92;1.82;;;;;;;28.17;38.69;101568.05;3228222;85;21046;-74
2022/08/09 11:20:29;;;;;;;;;;;;;;;;;;;;;
2022/08/09 11:26:24;;;;;;;2.15;1.90;;;;;;;29.46;37.25;101568.86;3214802;86;21046;-73
2022/08/09 11:32:17;;;;;;;;;;;;;;;;;;;;;
2022/08/09 11:36:42;;;;;;;2.15;1.90;;;;;;;28.88;37.19;101567.97;3323870;83;21037;-74
2022/08/09 11:41:41;;;;;;;5.67;2.52;;;;;;;29.03;37.51;101569.08;3293074;84;21046;-74
2022/08/09 11:47:23;;;;;;;2.60;2.12;;;;;;;29.06;36.91;101560.02;3220932;85;21059;-75
2022/08/09 11:53:03;;;;;;;2.35;2.15;;;;;;;28.76;37.23;101560.55;3132751;89;21011;-74
2022/08/09 11:58:01;;;;;;;2.47;2.12;;;;;;;28.62;37.28;101558.97;3122542;89;21015;-73
2022/08/09 12:02:55;;;;;;;;;;;;;;;28.25;37.64;101549.88;3137418;88;21411;-75
2022/08/09 12:07:56;;;;;;;2.40;2.20;;;;;;;28.10;38.51;101548.75;3231034;85;20139;-75
2022/08/09 12:12:49;;;;;;;3.30;2.10;;;;;;;28.04;37.18;101547.19;3152924;87;21056;-74
2022/08/09 12:17:49;;;;;;;2.37;1.95;;;;;;;27.79;37.32;101548.67;3164352;87;21014;-73
2022/08/09 12:22:46;;;;;;;2.50;2.30;;;;;;;27.88;37.33;101542.08;3310945;83;21077;-73
2022/08/09 12:27:38;;;;;;;2.83;2.30;;;;;;;27.90;37.21;101534.86;3309037;83;21221;-73
2022/08/09 12:32:30;;;;;;;2.42;2.02;;;;;;;27.88;38.09;101535.39;3316577;83;21671;-73
2022/08/09 12:37:36;;;;;;;2.40;2.20;;;;;;;27.69;37.06;101534.85;3298866;84;21081;-73
2022/08/09 12:42:29;;;;;;;3.60;1.72;;;;;;;27.68;37.65;101534.43;3301022;84;26519;-73
2022/08/09 12:47:22;;;;;;;2.98;2.22;;;;;;;27.98;37.94;101521.22;3385740;81;21014;-73
2022/08/09 12:52:14;;;;;;;5.35;2.12;;;;;;;28.39;36.36;101516.70;3425915;80;21696;-73
2022/08/09 12:57:06;;;;;;;2.83;2.62;;;;;;;28.14;36.47;101523.14;3442758;80;21357;-73
2022/08/09 13:02:06;;;;;;;3.30;2.05;;;;;;;28.36;37.08;101510.15;3463444;81;20983;-73
2022/08/09 13:07:13;;;;;;;2.83;1.85;;;;;;;28.69;35.88;101512.27;3439844;79;20990;-72
2022/08/09 13:12:05;;;;;;;;;;;;;;;28.42;35.82;101511.23;3347961;82;21026;-73
2022/08/09 13:17:05;;;;;;;2.62;2.40;;;;;;;27.62;36.47;101511.14;3403168;82;20804;-72
2022/08/09 13:22:21;;;;;;;4.00;2.30;;;;;;;28.24;37.58;101507.58;3410933;82;21057;-73
2022/08/09 13:27:33;;;;;;;2.33;2.13;;;;;;;28.43;37.16;101504.92;3406777;81;20975;-73
2022/08/09 13:32:52;;;;;;;3.67;2.50;;;;;;;28.44;36.99;101513.84;3338740;83;20943;-73
2022/08/09 13:37:46;;;;;;;4.62;2.40;;;;;;;27.63;37.22;101511.05;3402468;82;20979;-73
2022/08/09 13:42:39;;;;;;;2.85;2.25;;;;;;;27.93;37.59;101500.03;3479032;81;21229;-73
2022/08/09 13:47:32;;;;;;;2.85;2.40;;;;;;;28.29;37.54;101501.53;3444748;81;21352;-73
2022/08/09 13:52:25;;;;;;;3.20;2.27;;;;;;;28.34;36.89;101502.67;3437093;81;20994;-73
2022/08/09 13:57:17;;;;;;;2.37;2.17;;;;;;;28.39;36.64;101507.83;3475798;80;20974;-73
2022/08/09 14:02:09;;;;;;;2.72;2.52;;;;;;;28.52;36.14;101506.31;3472488;80;21216;-73
2022/08/09 14:07:03;;;;;;;5.30;3.17;;;;;;;27.70;36.33;101512.52;3470522;80;21976;-75
2022/08/09 14:12:40;;;;;;;2.33;2.10;;;;;;;26.82;37.15;101504.50;3439047;80;21046;-74
